sensor_id;sensor_type;location;lat;lon;timestamp;P1;durP1;ratioP1;P2;durP2;ratioP2
58366;SDS011;57745;42.524;12.052;2023-04-15T00:00:25;4.57;;;1.80;;
58366;SDS011;57745;42.524;12.052;2023-04-15T00:02:50;4.28;;;2.17;;
58366;SDS011;57745;42.524;12.052;2023-04-15T00:05:17;6.78;;;1.98;;
58366;SDS011;57745;42.524;12.052;2023-04-15T00:07:42;9.23;;;2.33;;
58366;SDS011;57745;42.524;12.052;2023-04-15T00:10:10;4.00;;;1.55;;
58366;SDS011;57745;42.524;12.052;2023-04-15T00:12:35;4.35;;;1.88;;
58366;SDS011;57745;42.524;12.052;2023-04-15T00:15:01;6.25;;;2.00;;
58366;SDS011;57745;42.524;12.052;2023-04-15T00:17:27;4.50;;;1.77;;
58366;SDS011;57745;42.524;12.052;2023-04-15T00:19:52;3.08;;;1.70;;
58366;SDS011;57745;42.524;12.052;2023-04-15T00:22:18;4.38;;;1.98;;
58366;SDS011;57745;42.524;12.052;2023-04-15T00:24:44;3.97;;;2.28;;
58366;SDS011;57745;42.524;12.052;2023-04-15T00:27:09;3.70;;;1.58;;
58366;SDS011;57745;42.524;12.052;2023-04-15T00:29:35;4.72;;;1.85;;
58366;SDS011;57745;42.524;12.052;2023-04-15T00:32:01;5.05;;;1.90;;
58366;SDS011;57745;42.524;12.052;2023-04-15T00:34:27;3.67;;;1.90;;
58366;SDS011;57745;42.524;12.052;2023-04-15T00:36:53;4.80;;;2.17;;
58366;SDS011;57745;42.524;12.052;2023-04-15T00:39:18;5.75;;;2.20;;
58366;SDS011;57745;42.524;12.052;2023-04-15T00:41:44;3.70;;;2.03;;
58366;SDS011;57745;42.524;12.052;2023-04-15T00:44:10;5.50;;;1.88;;
58366;SDS011;57745;42.524;12.052;2023-04-15T00:46:36;3.60;;;1.50;;
58366;SDS011;57745;42.524;12.052;2023-04-15T00:49:02;3.58;;;1.63;;
58366;SDS011;57745;42.524;12.052;2023-04-15T00:51:29;6.32;;;1.90;;
58366;SDS011;57745;42.524;12.052;2023-04-15T00:53:57;6.07;;;2.00;;
58366;SDS011;57745;42.524;12.052;2023-04-15T00:56:26;3.78;;;1.70;;
58366;SDS011;57745;42.524;12.052;2023-04-15T00:58:53;3.88;;;1.73;;
58366;SDS011;57745;42.524;12.052;2023-04-15T01:01:21;4.00;;;1.73;;
58366;SDS011;57745;42.524;12.052;2023-04-15T01:03:49;6.47;;;1.75;;
58366;SDS011;57745;42.524;12.052;2023-04-15T01:06:16;8.52;;;2.20;;
58366;SDS011;57745;42.524;12.052;2023-04-15T01:08:42;3.33;;;1.50;;
58366;SDS011;57745;42.524;12.052;2023-04-15T01:11:08;4.47;;;1.70;;
58366;SDS011;57745;42.524;12.052;2023-04-15T01:13:35;8.50;;;2.00;;
58366;SDS011;57745;42.524;12.052;2023-04-15T01:16:01;5.03;;;1.73;;
58366;SDS011;57745;42.524;12.052;2023-04-15T01:18:27;4.18;;;1.75;;
58366;SDS011;57745;42.524;12.052;2023-04-15T01:20:53;4.28;;;1.48;;
58366;SDS011;57745;42.524;12.052;2023-04-15T01:23:19;5.43;;;1.65;;
58366;SDS011;57745;42.524;12.052;2023-04-15T01:25:46;5.18;;;1.98;;
58366;SDS011;57745;42.524;12.052;2023-04-15T01:28:13;7.15;;;2.05;;
58366;SDS011;57745;42.524;12.052;2023-04-15T01:30:39;7.75;;;1.80;;
58366;SDS011;57745;42.524;12.052;2023-04-15T01:33:04;6.85;;;2.03;;
58366;SDS011;57745;42.524;12.052;2023-04-15T01:35:30;5.47;;;1.60;;
58366;SDS011;57745;42.524;12.052;2023-04-15T01:37:57;10.43;;;2.20;;
58366;SDS011;57745;42.524;12.052;2023-04-15T01:40:29;10.57;;;2.50;;
58366;SDS011;57745;42.524;12.052;2023-04-15T01:42:54;6.78;;;1.88;;
58366;SDS011;57745;42.524;12.052;2023-04-15T01:45:20;6.28;;;2.53;;
58366;SDS011;57745;42.524;12.052;2023-04-15T01:47:46;8.75;;;2.20;;
58366;SDS011;57745;42.524;12.052;2023-04-15T01:50:11;11.68;;;2.30;;
58366;SDS011;57745;42.524;12.052;2023-04-15T01:52:37;8.40;;;2.42;;
58366;SDS011;57745;42.524;12.052;2023-04-15T01:55:02;8.93;;;2.53;;
58366;SDS011;57745;42.524;12.052;2023-04-15T01:57:28;4.95;;;1.90;;
58366;SDS011;57745;42.524;12.052;2023-04-15T01:59:54;6.32;;;1.70;;
58366;SDS011;57745;42.524;12.052;2023-04-15T02:02:20;11.60;;;2.45;;
58366;SDS011;57745;42.524;12.052;2023-04-15T02:04:45;8.77;;;2.10;;
58366;SDS011;57745;42.524;12.052;2023-04-15T02:07:11;5.03;;;2.28;;
58366;SDS011;57745;42.524;12.052;2023-04-15T02:09:36;9.82;;;2.25;;
58366;SDS011;57745;42.524;12.052;2023-04-15T02:12:02;5.38;;;1.80;;
58366;SDS011;57745;42.524;12.052;2023-04-15T02:14:28;5.25;;;1.65;;
58366;SDS011;57745;42.524;12.052;2023-04-15T02:16:53;8.13;;;1.95;;
58366;SDS011;57745;42.524;12.052;2023-04-15T02:19:18;8.90;;;1.83;;
58366;SDS011;57745;42.524;12.052;2023-04-15T02:21:44;9.48;;;1.90;;
58366;SDS011;57745;42.524;12.052;2023-04-15T02:24:09;6.95;;;3.22;;
58366;SDS011;57745;42.524;12.052;2023-04-15T02:26:36;7.07;;;1.70;;
58366;SDS011;57745;42.524;12.052;2023-04-15T02:29:01;5.93;;;1.52;;
58366;SDS011;57745;42.524;12.052;2023-04-15T02:31:27;6.22;;;1.50;;
58366;SDS011;57745;42.524;12.052;2023-04-15T02:33:52;8.68;;;1.95;;
58366;SDS011;57745;42.524;12.052;2023-04-15T02:36:18;8.60;;;1.75;;
58366;SDS011;57745;42.524;12.052;2023-04-15T02:38:45;10.90;;;1.80;;
58366;SDS011;57745;42.524;12.052;2023-04-15T02:41:10;5.63;;;1.40;;
58366;SDS011;57745;42.524;12.052;2023-04-15T02:43:35;9.45;;;2.22;;
58366;SDS011;57745;42.524;12.052;2023-04-15T02:46:02;8.02;;;1.90;;
58366;SDS011;57745;42.524;12.052;2023-04-15T02:48:27;11.85;;;2.20;;
58366;SDS011;57745;42.524;12.052;2023-04-15T02:50:53;8.00;;;2.00;;
58366;SDS011;57745;42.524;12.052;2023-04-15T02:53:34;9.70;;;1.70;;
58366;SDS011;57745;42.524;12.052;2023-04-15T02:56:00;11.77;;;2.47;;
58366;SDS011;57745;42.524;12.052;2023-04-15T02:58:25;10.60;;;2.15;;
58366;SDS011;57745;42.524;12.052;2023-04-15T03:00:51;7.60;;;1.88;;
58366;SDS011;57745;42.524;12.052;2023-04-15T03:03:16;11.48;;;1.85;;
58366;SDS011;57745;42.524;12.052;2023-04-15T03:05:41;10.30;;;2.10;;
58366;SDS011;57745;42.524;12.052;2023-04-15T03:08:08;18.35;;;3.00;;
58366;SDS011;57745;42.524;12.052;2023-04-15T03:10:34;11.77;;;1.95;;
58366;SDS011;57745;42.524;12.052;2023-04-15T03:12:59;7.15;;;1.75;;
58366;SDS011;57745;42.524;12.052;2023-04-15T03:15:25;11.63;;;2.10;;
58366;SDS011;57745;42.524;12.052;2023-04-15T03:17:51;9.10;;;2.10;;
58366;SDS011;57745;42.524;12.052;2023-04-15T03:20:16;8.55;;;1.75;;
58366;SDS011;57745;42.524;12.052;2023-04-15T03:22:42;7.47;;;2.05;;
58366;SDS011;57745;42.524;12.052;2023-04-15T03:25:07;13.88;;;2.78;;
58366;SDS011;57745;42.524;12.052;2023-04-15T03:27:33;10.45;;;2.72;;
58366;SDS011;57745;42.524;12.052;2023-04-15T03:29:59;9.40;;;2.72;;
58366;SDS011;57745;42.524;12.052;2023-04-15T03:32:24;7.15;;;2.10;;
58366;SDS011;57745;42.524;12.052;2023-04-15T03:34:49;10.82;;;2.85;;
58366;SDS011;57745;42.524;12.052;2023-04-15T03:37:15;10.38;;;2.50;;
58366;SDS011;57745;42.524;12.052;2023-04-15T03:39:40;7.50;;;2.03;;
58366;SDS011;57745;42.524;12.052;2023-04-15T03:42:06;10.27;;;3.22;;
58366;SDS011;57745;42.524;12.052;2023-04-15T03:44:31;14.73;;;2.90;;
58366;SDS011;57745;42.524;12.052;2023-04-15T03:46:57;13.25;;;2.95;;
58366;SDS011;57745;42.524;12.052;2023-04-15T03:49:22;8.82;;;2.72;;
58366;SDS011;57745;42.524;12.052;2023-04-15T03:51:48;10.00;;;2.42;;
58366;SDS011;57745;42.524;12.052;2023-04-15T03:54:13;12.63;;;2.72;;
58366;SDS011;57745;42.524;12.052;2023-04-15T03:56:40;13.43;;;2.60;;
58366;SDS011;57745;42.524;12.052;2023-04-15T03:59:05;12.80;;;2.30;;
58366;SDS011;57745;42.524;12.052;2023-04-15T04:01:31;8.60;;;2.00;;
58366;SDS011;57745;42.524;12.052;2023-04-15T04:03:56;11.65;;;2.33;;
58366;SDS011;57745;42.524;12.052;2023-04-15T04:06:22;11.40;;;2.38;;
58366;SDS011;57745;42.524;12.052;2023-04-15T04:08:47;14.60;;;2.40;;
58366;SDS011;57745;42.524;12.052;2023-04-15T04:11:13;13.20;;;3.22;;
58366;SDS011;57745;42.524;12.052;2023-04-15T04:13:38;8.50;;;1.83;;
58366;SDS011;57745;42.524;12.052;2023-04-15T04:16:04;13.23;;;2.53;;
58366;SDS011;57745;42.524;12.052;2023-04-15T04:18:30;10.65;;;2.17;;
58366;SDS011;57745;42.524;12.052;2023-04-15T04:20:57;11.40;;;2.58;;
58366;SDS011;57745;42.524;12.052;2023-04-15T04:23:22;8.88;;;2.55;;
58366;SDS011;57745;42.524;12.052;2023-04-15T04:25:48;12.60;;;2.30;;
58366;SDS011;57745;42.524;12.052;2023-04-15T04:28:13;11.98;;;2.28;;
58366;SDS011;57745;42.524;12.052;2023-04-15T04:30:38;9.60;;;2.38;;
58366;SDS011;57745;42.524;12.052;2023-04-15T04:33:04;9.73;;;2.90;;
58366;SDS011;57745;42.524;12.052;2023-04-15T04:35:30;7.57;;;2.20;;
58366;SDS011;57745;42.524;12.052;2023-04-15T04:37:58;10.10;;;1.95;;
58366;SDS011;57745;42.524;12.052;2023-04-15T04:40:24;7.57;;;1.90;;
58366;SDS011;57745;42.524;12.052;2023-04-15T04:42:50;13.00;;;2.58;;
58366;SDS011;57745;42.524;12.052;2023-04-15T04:45:15;11.85;;;2.28;;
58366;SDS011;57745;42.524;12.052;2023-04-15T04:47:41;11.30;;;2.08;;
58366;SDS011;57745;42.524;12.052;2023-04-15T04:50:06;9.82;;;1.60;;
58366;SDS011;57745;42.524;12.052;2023-04-15T04:52:33;13.23;;;2.17;;
58366;SDS011;57745;42.524;12.052;2023-04-15T04:54:58;11.77;;;1.55;;
58366;SDS011;57745;42.524;12.052;2023-04-15T04:57:23;8.48;;;1.40;;
58366;SDS011;57745;42.524;12.052;2023-04-15T04:59:49;8.35;;;1.60;;
58366;SDS011;57745;42.524;12.052;2023-04-15T05:02:15;8.65;;;1.80;;
58366;SDS011;57745;42.524;12.052;2023-04-15T05:04:40;8.70;;;1.70;;
58366;SDS011;57745;42.524;12.052;2023-04-15T05:07:05;13.70;;;2.67;;
58366;SDS011;57745;42.524;12.052;2023-04-15T05:09:31;14.98;;;2.08;;
58366;SDS011;57745;42.524;12.052;2023-04-15T05:12:00;12.50;;;3.20;;
58366;SDS011;57745;42.524;12.052;2023-04-15T05:14:25;13.05;;;2.33;;
58366;SDS011;57745;42.524;12.052;2023-04-15T05:16:51;9.32;;;1.50;;
58366;SDS011;57745;42.524;12.052;2023-04-15T05:19:16;10.35;;;1.65;;
58366;SDS011;57745;42.524;12.052;2023-04-15T05:21:42;6.53;;;1.50;;
58366;SDS011;57745;42.524;12.052;2023-04-15T05:24:07;6.53;;;1.95;;
58366;SDS011;57745;42.524;12.052;2023-04-15T05:26:32;8.27;;;1.77;;
58366;SDS011;57745;42.524;12.052;2023-04-15T05:28:58;8.10;;;1.52;;
58366;SDS011;57745;42.524;12.052;2023-04-15T05:31:23;9.15;;;1.63;;
58366;SDS011;57745;42.524;12.052;2023-04-15T05:33:49;9.40;;;1.67;;
58366;SDS011;57745;42.524;12.052;2023-04-15T05:36:15;7.75;;;1.45;;
58366;SDS011;57745;42.524;12.052;2023-04-15T05:38:40;7.78;;;1.55;;
58366;SDS011;57745;42.524;12.052;2023-04-15T05:41:06;9.18;;;1.65;;
58366;SDS011;57745;42.524;12.052;2023-04-15T05:43:32;8.82;;;1.88;;
58366;SDS011;57745;42.524;12.052;2023-04-15T05:45:57;9.77;;;1.73;;
58366;SDS011;57745;42.524;12.052;2023-04-15T05:48:23;4.32;;;1.48;;
58366;SDS011;57745;42.524;12.052;2023-04-15T05:50:48;6.72;;;1.35;;
58366;SDS011;57745;42.524;12.052;2023-04-15T05:53:14;9.38;;;2.05;;
58366;SDS011;57745;42.524;12.052;2023-04-15T05:55:39;5.68;;;1.55;;
58366;SDS011;57745;42.524;12.052;2023-04-15T05:58:05;6.60;;;1.50;;
58366;SDS011;57745;42.524;12.052;2023-04-15T06:00:30;9.48;;;1.92;;
58366;SDS011;57745;42.524;12.052;2023-04-15T06:02:56;13.32;;;1.83;;
58366;SDS011;57745;42.524;12.052;2023-04-15T06:05:22;7.45;;;1.67;;
58366;SDS011;57745;42.524;12.052;2023-04-15T06:07:48;6.13;;;1.92;;
58366;SDS011;57745;42.524;12.052;2023-04-15T06:10:14;6.43;;;1.70;;
58366;SDS011;57745;42.524;12.052;2023-04-15T06:12:40;6.97;;;1.38;;
58366;SDS011;57745;42.524;12.052;2023-04-15T06:15:05;7.80;;;1.70;;
58366;SDS011;57745;42.524;12.052;2023-04-15T06:17:33;11.13;;;2.60;;
58366;SDS011;57745;42.524;12.052;2023-04-15T06:19:59;8.80;;;2.13;;
58366;SDS011;57745;42.524;12.052;2023-04-15T06:22:24;6.20;;;1.70;;
58366;SDS011;57745;42.524;12.052;2023-04-15T06:24:50;5.80;;;1.77;;
58366;SDS011;57745;42.524;12.052;2023-04-15T06:27:16;6.03;;;1.77;;
58366;SDS011;57745;42.524;12.052;2023-04-15T06:29:42;5.70;;;1.65;;
58366;SDS011;57745;42.524;12.052;2023-04-15T06:32:07;3.95;;;1.77;;
58366;SDS011;57745;42.524;12.052;2023-04-15T06:34:32;4.75;;;1.50;;
58366;SDS011;57745;42.524;12.052;2023-04-15T06:36:58;5.40;;;1.27;;
58366;SDS011;57745;42.524;12.052;2023-04-15T06:39:24;3.92;;;1.48;;
58366;SDS011;57745;42.524;12.052;2023-04-15T06:41:50;4.35;;;1.30;;
58366;SDS011;57745;42.524;12.052;2023-04-15T06:44:16;6.47;;;1.92;;
58366;SDS011;57745;42.524;12.052;2023-04-15T06:46:42;2.95;;;1.20;;
58366;SDS011;57745;42.524;12.052;2023-04-15T06:49:08;3.80;;;1.40;;
58366;SDS011;57745;42.524;12.052;2023-04-15T06:51:36;3.33;;;1.25;;
58366;SDS011;57745;42.524;12.052;2023-04-15T06:54:02;4.00;;;1.55;;
58366;SDS011;57745;42.524;12.052;2023-04-15T06:56:30;2.50;;;1.20;;
58366;SDS011;57745;42.524;12.052;2023-04-15T06:58:56;1.83;;;0.95;;
58366;SDS011;57745;42.524;12.052;2023-04-15T07:01:22;3.38;;;1.30;;
58366;SDS011;57745;42.524;12.052;2023-04-15T07:03:47;5.03;;;1.73;;
58366;SDS011;57745;42.524;12.052;2023-04-15T07:06:12;4.97;;;1.58;;
58366;SDS011;57745;42.524;12.052;2023-04-15T07:08:38;2.85;;;1.33;;
58366;SDS011;57745;42.524;12.052;2023-04-15T07:11:03;4.57;;;1.15;;
58366;SDS011;57745;42.524;12.052;2023-04-15T07:13:30;4.07;;;0.90;;
58366;SDS011;57745;42.524;12.052;2023-04-15T07:15:56;2.50;;;1.10;;
58366;SDS011;57745;42.524;12.052;2023-04-15T07:18:22;2.35;;;0.98;;
58366;SDS011;57745;42.524;12.052;2023-04-15T07:20:47;2.42;;;0.90;;
58366;SDS011;57745;42.524;12.052;2023-04-15T07:23:13;2.47;;;0.93;;
58366;SDS011;57745;42.524;12.052;2023-04-15T07:25:38;2.85;;;0.60;;
58366;SDS011;57745;42.524;12.052;2023-04-15T07:28:03;2.10;;;0.93;;
58366;SDS011;57745;42.524;12.052;2023-04-15T07:30:29;2.78;;;0.80;;
58366;SDS011;57745;42.524;12.052;2023-04-15T07:32:54;6.10;;;1.00;;
58366;SDS011;57745;42.524;12.052;2023-04-15T07:35:20;4.05;;;0.88;;
58366;SDS011;57745;42.524;12.052;2023-04-15T07:37:45;2.05;;;0.63;;
58366;SDS011;57745;42.524;12.052;2023-04-15T07:40:11;3.88;;;1.23;;
58366;SDS011;57745;42.524;12.052;2023-04-15T07:42:38;5.05;;;0.70;;
58366;SDS011;57745;42.524;12.052;2023-04-15T07:45:04;2.30;;;0.63;;
58366;SDS011;57745;42.524;12.052;2023-04-15T07:47:30;2.97;;;1.10;;
58366;SDS011;57745;42.524;12.052;2023-04-15T07:49:56;4.10;;;0.98;;
58366;SDS011;57745;42.524;12.052;2023-04-15T07:52:21;1.98;;;0.70;;
58366;SDS011;57745;42.524;12.052;2023-04-15T07:54:47;1.65;;;0.80;;
58366;SDS011;57745;42.524;12.052;2023-04-15T07:57:12;2.53;;;0.70;;
58366;SDS011;57745;42.524;12.052;2023-04-15T07:59:37;1.70;;;1.13;;
58366;SDS011;57745;42.524;12.052;2023-04-15T08:02:03;1.88;;;0.70;;
58366;SDS011;57745;42.524;12.052;2023-04-15T08:04:28;2.60;;;0.70;;
58366;SDS011;57745;42.524;12.052;2023-04-15T08:06:55;1.65;;;0.70;;
58366;SDS011;57745;42.524;12.052;2023-04-15T08:09:20;2.72;;;0.70;;
58366;SDS011;57745;42.524;12.052;2023-04-15T08:11:47;1.65;;;0.60;;
58366;SDS011;57745;42.524;12.052;2023-04-15T08:14:14;3.42;;;0.90;;
58366;SDS011;57745;42.524;12.052;2023-04-15T08:16:39;1.67;;;0.60;;
58366;SDS011;57745;42.524;12.052;2023-04-15T08:19:05;2.60;;;0.85;;
58366;SDS011;57745;42.524;12.052;2023-04-15T08:21:30;5.63;;;1.45;;
58366;SDS011;57745;42.524;12.052;2023-04-15T08:23:56;5.88;;;1.67;;
58366;SDS011;57745;42.524;12.052;2023-04-15T08:26:21;6.75;;;1.70;;
58366;SDS011;57745;42.524;12.052;2023-04-15T08:28:47;8.10;;;3.10;;
58366;SDS011;57745;42.524;12.052;2023-04-15T08:31:13;5.22;;;2.25;;
58366;SDS011;57745;42.524;12.052;2023-04-15T08:33:40;14.65;;;4.05;;
58366;SDS011;57745;42.524;12.052;2023-04-15T08:36:06;6.20;;;2.53;;
58366;SDS011;57745;42.524;12.052;2023-04-15T08:38:32;5.47;;;2.38;;
58366;SDS011;57745;42.524;12.052;2023-04-15T08:40:59;3.90;;;1.70;;
58366;SDS011;57745;42.524;12.052;2023-04-15T08:43:33;2.92;;;1.65;;
58366;SDS011;57745;42.524;12.052;2023-04-15T08:45:59;3.72;;;1.98;;
58366;SDS011;57745;42.524;12.052;2023-04-15T08:48:31;5.70;;;2.30;;
58366;SDS011;57745;42.524;12.052;2023-04-15T08:50:57;4.00;;;2.60;;
58366;SDS011;57745;42.524;12.052;2023-04-15T08:53:23;3.72;;;2.13;;
58366;SDS011;57745;42.524;12.052;2023-04-15T08:55:50;7.20;;;1.90;;
58366;SDS011;57745;42.524;12.052;2023-04-15T08:58:17;9.55;;;2.10;;
58366;SDS011;57745;42.524;12.052;2023-04-15T09:00:43;3.78;;;1.50;;
58366;SDS011;57745;42.524;12.052;2023-04-15T09:03:09;5.38;;;1.30;;
58366;SDS011;57745;42.524;12.052;2023-04-15T09:05:35;6.50;;;2.10;;
58366;SDS011;57745;42.524;12.052;2023-04-15T09:08:01;4.55;;;1.90;;
58366;SDS011;57745;42.524;12.052;2023-04-15T09:10:28;2.55;;;1.40;;
58366;SDS011;57745;42.524;12.052;2023-04-15T09:12:54;4.40;;;1.40;;
58366;SDS011;57745;42.524;12.052;2023-04-15T09:15:20;3.85;;;1.30;;
58366;SDS011;57745;42.524;12.052;2023-04-15T09:17:46;3.72;;;0.95;;
58366;SDS011;57745;42.524;12.052;2023-04-15T09:20:15;6.78;;;2.42;;
58366;SDS011;57745;42.524;12.052;2023-04-15T09:22:44;6.18;;;1.55;;
58366;SDS011;57745;42.524;12.052;2023-04-15T09:27:46;12.63;;;2.25;;
58366;SDS011;57745;42.524;12.052;2023-04-15T09:30:24;10.38;;;2.50;;
58366;SDS011;57745;42.524;12.052;2023-04-15T09:32:51;9.63;;;2.92;;
58366;SDS011;57745;42.524;12.052;2023-04-15T09:35:22;14.68;;;2.20;;
58366;SDS011;57745;42.524;12.052;2023-04-15T09:37:48;6.63;;;2.40;;
58366;SDS011;57745;42.524;12.052;2023-04-15T09:40:14;13.30;;;3.92;;
58366;SDS011;57745;42.524;12.052;2023-04-15T09:43:15;7.97;;;1.50;;
58366;SDS011;57745;42.524;12.052;2023-04-15T09:45:53;8.18;;;1.95;;
58366;SDS011;57745;42.524;12.052;2023-04-15T09:50:46;7.00;;;1.73;;
58366;SDS011;57745;42.524;12.052;2023-04-15T09:53:21;3.72;;;1.58;;
58366;SDS011;57745;42.524;12.052;2023-04-15T09:58:23;4.82;;;2.00;;
58366;SDS011;57745;42.524;12.052;2023-04-15T10:00:52;3.17;;;2.03;;
58366;SDS011;57745;42.524;12.052;2023-04-15T10:03:51;3.88;;;1.90;;
58366;SDS011;57745;42.524;12.052;2023-04-15T10:06:10;3.70;;;1.83;;
58366;SDS011;57745;42.524;12.052;2023-04-15T10:08:36;2.30;;;1.60;;
58366;SDS011;57745;42.524;12.052;2023-04-15T10:11:02;2.65;;;1.52;;
58366;SDS011;57745;42.524;12.052;2023-04-15T10:13:30;2.42;;;1.30;;
58366;SDS011;57745;42.524;12.052;2023-04-15T10:16:05;2.90;;;1.63;;
58366;SDS011;57745;42.524;12.052;2023-04-15T10:18:33;3.90;;;1.48;;
58366;SDS011;57745;42.524;12.052;2023-04-15T10:21:00;6.68;;;2.80;;
58366;SDS011;57745;42.524;12.052;2023-04-15T10:23:25;4.85;;;2.20;;
58366;SDS011;57745;42.524;12.052;2023-04-15T10:25:52;4.63;;;2.47;;
58366;SDS011;57745;42.524;12.052;2023-04-15T10:28:21;4.47;;;2.40;;
58366;SDS011;57745;42.524;12.052;2023-04-15T10:30:47;3.00;;;1.80;;
58366;SDS011;57745;42.524;12.052;2023-04-15T10:33:13;3.45;;;2.08;;
58366;SDS011;57745;42.524;12.052;2023-04-15T10:35:44;6.05;;;2.50;;
58366;SDS011;57745;42.524;12.052;2023-04-15T10:38:30;3.72;;;1.95;;
58366;SDS011;57745;42.524;12.052;2023-04-15T10:43:52;4.60;;;1.90;;
58366;SDS011;57745;42.524;12.052;2023-04-15T10:46:23;4.60;;;1.85;;
58366;SDS011;57745;42.524;12.052;2023-04-15T10:49:06;4.03;;;1.50;;
58366;SDS011;57745;42.524;12.052;2023-04-15T10:54:09;3.47;;;1.23;;
58366;SDS011;57745;42.524;12.052;2023-04-15T10:56:40;1.80;;;1.13;;
58366;SDS011;57745;42.524;12.052;2023-04-15T10:59:09;1.90;;;1.30;;
58366;SDS011;57745;42.524;12.052;2023-04-15T11:01:54;2.45;;;1.60;;
58366;SDS011;57745;42.524;12.052;2023-04-15T11:12:54;1.55;;;1.23;;
58366;SDS011;57745;42.524;12.052;2023-04-15T11:17:56;1.60;;;1.50;;
58366;SDS011;57745;42.524;12.052;2023-04-15T11:20:33;1.42;;;1.00;;
58366;SDS011;57745;42.524;12.052;2023-04-15T11:22:59;1.30;;;1.05;;
58366;SDS011;57745;42.524;12.052;2023-04-15T11:25:28;1.73;;;0.82;;
58366;SDS011;57745;42.524;12.052;2023-04-15T11:27:59;2.45;;;0.95;;
58366;SDS011;57745;42.524;12.052;2023-04-15T11:30:27;1.33;;;1.08;;
58366;SDS011;57745;42.524;12.052;2023-04-15T11:32:56;2.05;;;1.05;;
58366;SDS011;57745;42.524;12.052;2023-04-15T11:35:23;1.20;;;0.90;;
58366;SDS011;57745;42.524;12.052;2023-04-15T11:37:48;1.23;;;1.08;;
58366;SDS011;57745;42.524;12.052;2023-04-15T11:40:15;1.08;;;0.70;;
58366;SDS011;57745;42.524;12.052;2023-04-15T11:42:45;2.03;;;1.00;;
58366;SDS011;57745;42.524;12.052;2023-04-15T11:45:12;3.97;;;1.30;;
58366;SDS011;57745;42.524;12.052;2023-04-15T11:47:39;1.85;;;1.05;;
58366;SDS011;57745;42.524;12.052;2023-04-15T11:50:13;1.50;;;0.70;;
58366;SDS011;57745;42.524;12.052;2023-04-15T11:52:53;0.95;;;0.70;;
58366;SDS011;57745;42.524;12.052;2023-04-15T11:55:19;2.40;;;0.95;;
58366;SDS011;57745;42.524;12.052;2023-04-15T11:57:45;1.65;;;0.90;;
58366;SDS011;57745;42.524;12.052;2023-04-15T12:00:10;1.63;;;0.70;;
58366;SDS011;57745;42.524;12.052;2023-04-15T12:02:37;2.45;;;0.88;;
58366;SDS011;57745;42.524;12.052;2023-04-15T12:05:03;1.55;;;0.80;;
58366;SDS011;57745;42.524;12.052;2023-04-15T12:08:14;1.10;;;0.80;;
58366;SDS011;57745;42.524;12.052;2023-04-15T12:10:23;1.02;;;0.88;;
58366;SDS011;57745;42.524;12.052;2023-04-15T12:12:51;1.77;;;1.30;;
58366;SDS011;57745;42.524;12.052;2023-04-15T12:15:20;1.88;;;1.08;;
58366;SDS011;57745;42.524;12.052;2023-04-15T12:17:47;2.97;;;1.45;;
58366;SDS011;57745;42.524;12.052;2023-04-15T12:20:19;2.40;;;1.50;;
58366;SDS011;57745;42.524;12.052;2023-04-15T12:22:46;2.60;;;1.60;;
58366;SDS011;57745;42.524;12.052;2023-04-15T12:25:11;1.70;;;1.38;;
58366;SDS011;57745;42.524;12.052;2023-04-15T12:27:37;2.17;;;1.30;;
58366;SDS011;57745;42.524;12.052;2023-04-15T12:30:03;2.00;;;1.20;;
58366;SDS011;57745;42.524;12.052;2023-04-15T12:32:29;1.85;;;1.10;;
58366;SDS011;57745;42.524;12.052;2023-04-15T12:34:59;1.30;;;0.98;;
58366;SDS011;57745;42.524;12.052;2023-04-15T12:37:25;1.38;;;0.90;;
58366;SDS011;57745;42.524;12.052;2023-04-15T12:39:51;1.95;;;1.45;;
58366;SDS011;57745;42.524;12.052;2023-04-15T12:42:18;1.60;;;1.10;;
58366;SDS011;57745;42.524;12.052;2023-04-15T12:44:43;2.03;;;1.38;;
58366;SDS011;57745;42.524;12.052;2023-04-15T12:47:10;1.75;;;1.30;;
58366;SDS011;57745;42.524;12.052;2023-04-15T12:49:36;1.85;;;1.67;;
58366;SDS011;57745;42.524;12.052;2023-04-15T12:52:02;2.28;;;2.08;;
58366;SDS011;57745;42.524;12.052;2023-04-15T12:54:31;1.90;;;1.70;;
58366;SDS011;57745;42.524;12.052;2023-04-15T12:56:57;2.28;;;1.80;;
58366;SDS011;57745;42.524;12.052;2023-04-15T12:59:23;1.77;;;1.40;;
58366;SDS011;57745;42.524;12.052;2023-04-15T13:01:49;1.80;;;1.40;;
58366;SDS011;57745;42.524;12.052;2023-04-15T13:04:16;2.30;;;1.60;;
58366;SDS011;57745;42.524;12.052;2023-04-15T13:06:41;2.03;;;1.27;;
58366;SDS011;57745;42.524;12.052;2023-04-15T13:09:07;4.28;;;1.27;;
58366;SDS011;57745;42.524;12.052;2023-04-15T13:11:33;1.85;;;1.23;;
58366;SDS011;57745;42.524;12.052;2023-04-15T13:14:00;3.17;;;1.30;;
58366;SDS011;57745;42.524;12.052;2023-04-15T13:16:26;2.15;;;1.20;;
58366;SDS011;57745;42.524;12.052;2023-04-15T13:18:52;1.20;;;0.93;;
58366;SDS011;57745;42.524;12.052;2023-04-15T13:21:17;1.50;;;0.88;;
58366;SDS011;57745;42.524;12.052;2023-04-15T13:23:43;1.88;;;0.80;;
58366;SDS011;57745;42.524;12.052;2023-04-15T13:26:09;2.03;;;1.10;;
58366;SDS011;57745;42.524;12.052;2023-04-15T13:28:34;1.92;;;1.00;;
58366;SDS011;57745;42.524;12.052;2023-04-15T13:31:00;1.13;;;0.90;;
58366;SDS011;57745;42.524;12.052;2023-04-15T13:33:25;1.70;;;0.90;;
58366;SDS011;57745;42.524;12.052;2023-04-15T13:35:51;1.10;;;0.82;;
58366;SDS011;57745;42.524;12.052;2023-04-15T13:38:17;1.23;;;0.77;;
58366;SDS011;57745;42.524;12.052;2023-04-15T13:40:42;2.05;;;0.82;;
58366;SDS011;57745;42.524;12.052;2023-04-15T13:43:08;1.30;;;0.85;;
58366;SDS011;57745;42.524;12.052;2023-04-15T13:45:34;1.42;;;1.08;;
58366;SDS011;57745;42.524;12.052;2023-04-15T13:47:59;1.30;;;1.00;;
58366;SDS011;57745;42.524;12.052;2023-04-15T13:50:25;1.58;;;1.00;;
58366;SDS011;57745;42.524;12.052;2023-04-15T13:52:51;1.63;;;1.13;;
58366;SDS011;57745;42.524;12.052;2023-04-15T13:55:16;1.70;;;1.02;;
58366;SDS011;57745;42.524;12.052;2023-04-15T13:57:42;2.28;;;1.10;;
58366;SDS011;57745;42.524;12.052;2023-04-15T14:00:07;2.88;;;1.00;;
58366;SDS011;57745;42.524;12.052;2023-04-15T14:02:33;2.03;;;1.08;;
58366;SDS011;57745;42.524;12.052;2023-04-15T14:04:59;3.10;;;1.10;;
58366;SDS011;57745;42.524;12.052;2023-04-15T14:07:24;1.95;;;1.35;;
58366;SDS011;57745;42.524;12.052;2023-04-15T14:09:50;2.60;;;1.05;;
58366;SDS011;57745;42.524;12.052;2023-04-15T14:12:15;2.60;;;1.60;;
58366;SDS011;57745;42.524;12.052;2023-04-15T14:14:41;2.85;;;2.10;;
58366;SDS011;57745;42.524;12.052;2023-04-15T14:17:06;4.78;;;2.40;;
58366;SDS011;57745;42.524;12.052;2023-04-15T14:19:32;2.85;;;1.77;;
58366;SDS011;57745;42.524;12.052;2023-04-15T14:22:00;2.88;;;2.08;;
58366;SDS011;57745;42.524;12.052;2023-04-15T14:24:25;3.03;;;2.03;;
58366;SDS011;57745;42.524;12.052;2023-04-15T14:26:51;2.58;;;1.65;;
58366;SDS011;57745;42.524;12.052;2023-04-15T14:29:17;3.15;;;1.80;;
58366;SDS011;57745;42.524;12.052;2023-04-15T14:31:43;2.42;;;1.65;;
58366;SDS011;57745;42.524;12.052;2023-04-15T14:34:12;2.45;;;1.60;;
58366;SDS011;57745;42.524;12.052;2023-04-15T14:36:41;3.60;;;1.90;;
58366;SDS011;57745;42.524;12.052;2023-04-15T14:39:06;4.00;;;2.00;;
58366;SDS011;57745;42.524;12.052;2023-04-15T14:41:32;2.35;;;1.50;;
58366;SDS011;57745;42.524;12.052;2023-04-15T14:43:58;4.20;;;1.70;;
58366;SDS011;57745;42.524;12.052;2023-04-15T14:46:24;3.42;;;1.70;;
58366;SDS011;57745;42.524;12.052;2023-04-15T14:48:50;4.68;;;2.53;;
58366;SDS011;57745;42.524;12.052;2023-04-15T14:51:15;7.22;;;6.53;;
58366;SDS011;57745;42.524;12.052;2023-04-15T14:53:41;5.63;;;4.80;;